Time;durP1;ratioP1;P1;durP2;ratioP2;P2;SDS_P1;SDS_P2;PMS_P1;PMS_P2;Temp;Humidity;BMP_temperature;BMP_pressure;BME280_temperature;BME280_humidity;BME280_pressure;Samples;Min_cycle;Max_cycle;Signal;HPM_P1;HPM_P2
2023/10/06 00:01:40;;;;;;;26.65;5.10;;;;;;;;;;4946476;29;20499;-57
2023/10/06 00:04:07;;;;;;;35.63;5.68;;;;;;;;;;4946262;29;20473;-55
2023/10/06 00:06:37;;;;;;;52.10;6.90;;;;;;;;;;4935040;29;20065;-57
2023/10/06 00:09:06;;;;;;;34.30;5.43;;;;;;;;;;4944869;28;20390;-55
2023/10/06 00:11:33;;;;;;;21.02;4.88;;;;;;;;;;4941461;29;20665;-54
2023/10/06 00:14:18;;;;;;;30.58;5.13;;;;;;;;;;4946295;29;20051;-54
2023/10/06 00:16:46;;;;;;;11.50;3.83;;;;;;;;;;4941985;28;20740;-55
2023/10/06 00:19:31;;;;;;;42.85;6.28;;;;;;;;;;4944896;28;20047;-56
2023/10/06 00:22:03;;;;;;;32.03;5.75;;;;;;;;;;4945704;29;20136;-55
2023/10/06 00:24:31;;;;;;;42.63;5.85;;;;;;;;;;4942679;28;20103;-54
2023/10/06 00:26:58;;;;;;;26.63;5.07;;;;;;;;;;4942515;29;20051;-56
2023/10/06 00:29:28;;;;;;;28.88;5.75;;;;;;;;;;4943847;29;20044;-54
2023/10/06 00:32:00;;;;;;;32.42;5.13;;;;;;;;;;4941277;29;20052;-52
2023/10/06 00:34:30;;;;;;;24.40;4.20;;;;;;;;;;4942167;29;20051;-57
2023/10/06 00:36:57;;;;;;;25.10;5.68;;;;;;;;;;4943064;29;20046;-56
2023/10/06 00:39:25;;;;;;;57.45;6.63;;;;;;;;;;4943413;29;20078;-55
2023/10/06 00:41:56;;;;;;;27.40;4.88;;;;;;;;;;4950038;29;20110;-54
2023/10/06 00:44:23;;;;;;;33.50;4.97;;;;;;;;;;4941572;29;20143;-55
2023/10/06 00:46:50;;;;;;;24.85;4.55;;;;;;;;;;4939543;28;20054;-57
2023/10/06 00:49:18;;;;;;;30.63;4.63;;;;;;;;;;4928818;29;20052;-56
2023/10/06 00:51:45;;;;;;;37.50;5.38;;;;;;;;;;4948259;29;20048;-55
2023/10/06 00:54:12;;;;;;;73.25;7.28;;;;;;;;;;4942947;29;20109;-53
2023/10/06 00:56:38;;;;;;;33.35;5.55;;;;;;;;;;4943930;29;20051;-58
2023/10/06 00:59:05;;;;;;;42.33;5.68;;;;;;;;;;4942323;29;20047;-55
2023/10/06 01:01:34;;;;;;;30.60;4.57;;;;;;;;;;4945323;29;20039;-54
2023/10/06 01:04:01;;;;;;;37.90;5.72;;;;;;;;;;4941710;29;20094;-54
2023/10/06 01:06:36;;;;;;;38.83;5.47;;;;;;;;;;4949966;29;20074;-57
2023/10/06 01:09:16;;;;;;;41.17;6.18;;;;;;;;;;4946772;29;20039;-53
2023/10/06 01:11:45;;;;;;;30.00;5.40;;;;;;;;;;4959071;28;20094;-52
2023/10/06 01:14:21;;;;;;;28.63;4.45;;;;;;;;;;4939545;29;20068;-54
2023/10/06 01:16:53;;;;;;;32.90;4.68;;;;;;;;;;4945302;29;20047;-59
2023/10/06 01:19:26;;;;;;;38.30;5.68;;;;;;;;;;4946363;29;20047;-56
2023/10/06 01:21:53;;;;;;;;;;;;;;;;;;4950310;29;20055;-54
2023/10/06 01:24:28;;;;;;;58.10;6.13;;;;;;;;;;4951129;29;19922;-58
2023/10/06 01:26:58;;;;;;;31.63;5.03;;;;;;;;;;4945382;29;20423;-53
2023/10/06 01:29:29;;;;;;;30.65;5.10;;;;;;;;;;4944086;28;20058;-55
2023/10/06 01:31:56;;;;;;;31.95;5.28;;;;;;;;;;4945659;29;20135;-54
2023/10/06 01:34:24;;;;;;;33.53;5.00;;;;;;;;;;4939180;29;20055;-54
2023/10/06 01:36:54;;;;;;;37.38;5.50;;;;;;;;;;4942071;29;20051;-55
2023/10/06 01:39:25;;;;;;;90.00;9.20;;;;;;;;;;4940654;29;20121;-57
2023/10/06 01:41:52;;;;;;;36.67;6.50;;;;;;;;;;4956949;28;20061;-55
2023/10/06 01:44:19;;;;;;;24.60;4.55;;;;;;;;;;4944262;29;20051;-58
2023/10/06 01:46:53;;;;;;;39.45;5.47;;;;;;;;;;4946367;29;20067;-51
2023/10/06 01:49:23;;;;;;;38.53;6.57;;;;;;;;;;4946556;29;20093;-57
2023/10/06 01:51:50;;;;;;;25.83;5.00;;;;;;;;;;4940110;29;20055;-53
2023/10/06 01:54:37;;;;;;;50.28;5.50;;;;;;;;;;4941311;29;20052;-52
2023/10/06 01:57:09;;;;;;;28.25;5.15;;;;;;;;;;4937216;29;20051;-59
2023/10/06 01:59:36;;;;;;;29.80;4.60;;;;;;;;;;4948805;29;20143;-53
2023/10/06 02:02:04;;;;;;;142.82;11.90;;;;;;;;;;3698251;23;21079;-53
2023/10/06 02:04:39;;;;;;;33.45;5.30;;;;;;;;;;4968439;28;20042;-54
2023/10/06 02:07:10;;;;;;;19.55;4.05;;;;;;;;;;4966546;28;20046;-53
2023/10/06 02:09:39;;;;;;;33.47;5.07;;;;;;;;;;4974187;28;20047;-54
2023/10/06 02:12:06;;;;;;;25.15;4.32;;;;;;;;;;4949976;28;20067;-58
2023/10/06 02:14:32;;;;;;;23.58;4.40;;;;;;;;;;4972233;28;20047;-53
2023/10/06 02:17:05;;;;;;;14.50;4.47;;;;;;;;;;4966724;28;20047;-53
2023/10/06 02:19:32;;;;;;;55.50;6.83;;;;;;;;;;4968389;28;20061;-54
2023/10/06 02:21:59;;;;;;;31.73;5.13;;;;;;;;;;4966190;28;20288;-55
2023/10/06 02:24:26;;;;;;;54.88;5.90;;;;;;;;;;4966768;28;20101;-50
2023/10/06 02:27:01;;;;;;;32.00;4.55;;;;;;;;;;4968619;28;20133;-51
2023/10/06 02:29:28;;;;;;;21.60;4.82;;;;;;;;;;4966938;28;20122;-51
2023/10/06 02:32:05;;;;;;;30.05;4.72;;;;;;;;;;4970664;28;20062;-53
2023/10/06 02:34:41;;;;;;;24.50;4.38;;;;;;;;;;4965019;28;20387;-54
2023/10/06 02:37:08;;;;;;;29.38;4.60;;;;;;;;;;4965764;28;20070;-54
2023/10/06 02:39:38;;;;;;;43.35;5.03;;;;;;;;;;4966625;28;20039;-47
2023/10/06 02:42:09;;;;;;;21.70;4.50;;;;;;;;;;4966806;28;20050;-56
2023/10/06 02:44:40;;;;;;;23.02;4.53;;;;;;;;;;4963989;28;20106;-50
2023/10/06 02:47:09;;;;;;;26.87;4.93;;;;;;;;;;4968537;28;20119;-48
2023/10/06 02:49:40;;;;;;;32.97;5.75;;;;;;;;;;4966212;28;20075;-54
2023/10/06 02:52:20;;;;;;;30.45;4.72;;;;;;;;;;4964135;28;20094;-58
2023/10/06 02:57:34;;;;;;;46.72;6.35;;;;;;;;;;4980281;28;20047;-47
2023/10/06 03:00:28;;;;;;;24.70;4.60;;;;;;;;;;4963701;28;20489;-53
2023/10/06 03:02:56;;;;;;;37.88;5.18;;;;;;;;;;4962448;28;20542;-49
2023/10/06 03:05:32;;;;;;;33.50;4.95;;;;;;;;;;4966495;28;20051;-47
2023/10/06 03:08:08;;;;;;;37.78;4.95;;;;;;;;;;4967859;28;20497;-52
2023/10/06 03:10:42;;;;;;;32.05;4.72;;;;;;;;;;4962621;28;20047;-56
2023/10/06 03:13:13;;;;;;;36.38;5.63;;;;;;;;;;4965092;28;20088;-47
2023/10/06 03:15:46;;;;;;;26.98;5.00;;;;;;;;;;4968376;28;20448;-52
2023/10/06 03:18:16;;;;;;;78.38;8.43;;;;;;;;;;4967435;28;20058;-54
2023/10/06 03:21:13;;;;;;;30.05;5.07;;;;;;;;;;4965090;28;20101;-55
2023/10/06 03:23:43;;;;;;;25.95;4.75;;;;;;;;;;4962774;28;20058;-53
2023/10/06 03:26:34;;;;;;;19.27;4.60;;;;;;;;;;4965385;28;20055;-48
2023/10/06 03:29:02;;;;;;;34.38;5.38;;;;;;;;;;4971573;28;20085;-54
2023/10/06 03:31:45;;;;;;;32.58;4.82;;;;;;;;;;4962585;28;20039;-52
2023/10/06 03:34:20;;;;;;;30.15;5.40;;;;;;;;;;4966756;28;20116;-55
2023/10/06 03:36:52;;;;;;;29.52;4.68;;;;;;;;;;4966921;28;20117;-57
2023/10/06 03:39:31;;;;;;;67.65;6.72;;;;;;;;;;4963938;28;20117;-56
2023/10/06 03:42:07;;;;;;;25.48;5.05;;;;;;;;;;4967123;28;20134;-52
2023/10/06 03:44:34;;;;;;;38.90;4.90;;;;;;;;;;4964233;28;20059;-55
2023/10/06 03:47:01;;;;;;;23.98;4.32;;;;;;;;;;4965896;28;20118;-53
2023/10/06 03:49:33;;;;;;;32.95;5.13;;;;;;;;;;4976606;28;20512;-47
2023/10/06 03:52:00;;;;;;;19.98;4.28;;;;;;;;;;4950155;28;20062;-54
2023/10/06 03:54:27;;;;;;;50.83;5.82;;;;;;;;;;4972623;28;20075;-54
2023/10/06 03:56:54;;;;;;;23.88;4.15;;;;;;;;;;4965071;28;20041;-54
2023/10/06 03:59:22;;;;;;;28.20;4.28;;;;;;;;;;4965235;28;20057;-54
2023/10/06 04:01:51;;;;;;;27.45;4.97;;;;;;;;;;4967810;28;20050;-56
2023/10/06 04:04:22;;;;;;;22.00;4.93;;;;;;;;;;4966646;28;20046;-54
2023/10/06 04:06:49;;;;;;;37.20;4.68;;;;;;;;;;4970307;28;20051;-52
2023/10/06 04:09:26;;;;;;;58.30;5.72;;;;;;;;;;4966249;28;20109;-50
2023/10/06 04:11:53;;;;;;;38.42;5.18;;;;;;;;;;4965600;28;20051;-50
2023/10/06 04:14:20;;;;;;;26.55;4.18;;;;;;;;;;4966304;28;20058;-54
2023/10/06 04:16:47;;;;;;;23.85;4.25;;;;;;;;;;4963886;28;20481;-54
2023/10/06 04:19:17;;;;;;;29.83;4.75;;;;;;;;;;4967524;28;20038;-54
2023/10/06 04:21:44;;;;;;;35.65;5.68;;;;;;;;;;4965821;28;20054;-52
2023/10/06 04:24:10;;;;;;;31.05;4.72;;;;;;;;;;4964510;28;20050;-55
2023/10/06 04:26:38;;;;;;;51.25;6.63;;;;;;;;;;4963492;28;20098;-59
2023/10/06 04:29:05;;;;;;;30.10;4.30;;;;;;;;;;4964261;28;20172;-52
2023/10/06 04:31:31;;;;;;;38.92;5.18;;;;;;;;;;4963202;28;20047;-52
2023/10/06 04:34:01;;;;;;;32.80;5.28;;;;;;;;;;4964787;28;20089;-52
2023/10/06 04:36:27;;;;;;;38.25;4.85;;;;;;;;;;4965002;28;20496;-54
2023/10/06 04:38:56;;;;;;;29.08;4.88;;;;;;;;;;4963408;28;20098;-53
2023/10/06 04:41:23;;;;;;;27.80;4.25;;;;;;;;;;4961876;28;20051;-54
2023/10/06 04:43:51;;;;;;;27.88;4.78;;;;;;;;;;4963854;28;20062;-58
2023/10/06 04:46:19;;;;;;;31.63;5.60;;;;;;;;;;4964914;28;20441;-57
2023/10/06 04:48:47;;;;;;;44.53;6.00;;;;;;;;;;4963633;28;20038;-51
2023/10/06 04:51:14;;;;;;;70.93;6.88;;;;;;;;;;4963835;28;20165;-55
2023/10/06 04:53:45;;;;;;;33.80;4.68;;;;;;;;;;4960240;28;20536;-55
2023/10/06 04:56:12;;;;;;;46.85;6.82;;;;;;;;;;4964743;28;20122;-55
2023/10/06 04:58:39;;;;;;;43.70;6.25;;;;;;;;;;4962391;28;20038;-53
2023/10/06 05:01:07;;;;;;;56.40;6.80;;;;;;;;;;4963987;28;20039;-56
2023/10/06 05:03:44;;;;;;;66.45;7.65;;;;;;;;;;4964296;28;20074;-48
2023/10/06 05:06:16;;;;;;;84.80;9.15;;;;;;;;;;4961402;28;20472;-55
2023/10/06 05:08:49;;;;;;;29.55;6.10;;;;;;;;;;4961870;28;20051;-54
2023/10/06 05:11:20;;;;;;;30.50;6.93;;;;;;;;;;4965983;28;20058;-55
2023/10/06 05:13:52;;;;;;;36.03;6.75;;;;;;;;;;4961229;28;20370;-55
2023/10/06 05:16:22;;;;;;;44.45;8.75;;;;;;;;;;4967377;28;20042;-55
2023/10/06 05:18:50;;;;;;;43.08;8.27;;;;;;;;;;4962485;28;20411;-55
2023/10/06 05:21:18;;;;;;;80.78;9.77;;;;;;;;;;4970427;28;20420;-54
2023/10/06 05:23:46;;;;;;;36.25;6.80;;;;;;;;;;4965031;28;20119;-55
2023/10/06 05:26:14;;;;;;;37.13;6.97;;;;;;;;;;4961845;28;20050;-50
2023/10/06 05:28:42;;;;;;;28.90;6.38;;;;;;;;;;4960768;28;20404;-55
2023/10/06 05:31:10;;;;;;;34.70;8.18;;;;;;;;;;4965715;28;20070;-55
2023/10/06 05:33:39;;;;;;;48.20;7.95;;;;;;;;;;4956135;28;20043;-54
2023/10/06 05:36:09;;;;;;;36.30;8.07;;;;;;;;;;4964902;28;20042;-50
2023/10/06 05:38:38;;;;;;;46.38;11.13;;;;;;;;;;4966502;28;20049;-57
2023/10/06 05:41:11;;;;;;;53.28;10.40;;;;;;;;;;4960007;28;20463;-51
2023/10/06 05:43:39;;;;;;;47.63;9.23;;;;;;;;;;4966687;28;20370;-58
2023/10/06 05:46:06;;;;;;;30.20;7.30;;;;;;;;;;4961009;28;20062;-57
2023/10/06 05:48:34;;;;;;;53.25;8.65;;;;;;;;;;4962533;28;20421;-54
2023/10/06 05:51:11;;;;;;;43.80;9.90;;;;;;;;;;4962054;28;20105;-57
2023/10/06 05:53:38;;;;;;;50.80;9.43;;;;;;;;;;4963719;28;20039;-51
2023/10/06 05:56:09;;;;;;;51.40;10.20;;;;;;;;;;4962582;28;20051;-53
2023/10/06 05:58:37;;;;;;;47.60;9.07;;;;;;;;;;4965158;28;20047;-55
2023/10/06 06:01:06;;;;;;;43.95;8.45;;;;;;;;;;4963330;28;20043;-55
2023/10/06 06:03:32;;;;;;;50.45;8.98;;;;;;;;;;4962641;28;20548;-55
2023/10/06 06:06:08;;;;;;;46.47;9.00;;;;;;;;;;4963432;28;20046;-58
2023/10/06 06:08:35;;;;;;;46.40;9.13;;;;;;;;;;4962352;28;20122;-52
2023/10/06 06:11:02;;;;;;;42.60;8.60;;;;;;;;;;4961192;28;20043;-55
2023/10/06 06:13:30;;;;;;;37.47;7.95;;;;;;;;;;4963417;28;20054;-54
2023/10/06 06:15:56;;;;;;;66.93;22.27;;;;;;;;;;4962684;28;20039;-51
2023/10/06 06:18:27;;;;;;;72.78;11.45;;;;;;;;;;4960302;28;20093;-55
2023/10/06 06:20:54;;;;;;;30.95;7.88;;;;;;;;;;4963044;28;20121;-56
2023/10/06 06:23:20;;;;;;;30.55;7.78;;;;;;;;;;4961779;28;20066;-56
2023/10/06 06:25:47;;;;;;;45.85;9.43;;;;;;;;;;4964661;28;20051;-57
2023/10/06 06:28:16;;;;;;;37.65;7.82;;;;;;;;;;4963099;28;20047;-58
2023/10/06 06:30:43;;;;;;;43.55;7.95;;;;;;;;;;4962605;28;20039;-57
2023/10/06 06:33:12;;;;;;;41.55;8.27;;;;;;;;;;4962116;28;20058;-59
2023/10/06 06:35:41;;;;;;;20.15;6.82;;;;;;;;;;4962284;28;20042;-56
2023/10/06 06:38:12;;;;;;;27.98;7.50;;;;;;;;;;4962327;28;20039;-53
2023/10/06 06:40:40;;;;;;;42.85;8.25;;;;;;;;;;4963955;28;20476;-55
2023/10/06 06:43:09;;;;;;;28.02;7.30;;;;;;;;;;4962762;28;20533;-52
2023/10/06 06:45:39;;;;;;;35.25;7.72;;;;;;;;;;4963239;28;20102;-54
2023/10/06 06:48:12;;;;;;;50.45;8.98;;;;;;;;;;4959327;28;20102;-57
2023/10/06 06:50:42;;;;;;;40.58;8.70;;;;;;;;;;4962705;28;20106;-48
2023/10/06 06:53:09;;;;;;;42.95;8.63;;;;;;;;;;4968699;28;20123;-58
2023/10/06 06:55:36;;;;;;;33.28;9.27;;;;;;;;;;4965270;28;20345;-55
2023/10/06 06:58:06;;;;;;;25.70;7.10;;;;;;;;;;4966204;28;20470;-48
2023/10/06 07:00:35;;;;;;;42.28;8.35;;;;;;;;;;4965942;28;20079;-56
2023/10/06 07:03:02;;;;;;;30.80;6.85;;;;;;;;;;4965962;28;20055;-56
2023/10/06 07:05:29;;;;;;;34.72;7.15;;;;;;;;;;4965892;28;20079;-56
2023/10/06 07:07:56;;;;;;;17.05;6.85;;;;;;;;;;4968470;28;20052;-48
2023/10/06 07:10:23;;;;;;;51.25;7.80;;;;;;;;;;4966441;28;20039;-54
2023/10/06 07:12:50;;;;;;;42.45;8.27;;;;;;;;;;4966945;28;20477;-55
2023/10/06 07:15:18;;;;;;;71.55;11.18;;;;;;;;;;4966656;28;20560;-56
2023/10/06 07:17:46;;;;;;;39.40;8.48;;;;;;;;;;4962758;28;20062;-56
2023/10/06 07:20:16;;;;;;;56.80;9.55;;;;;;;;;;4962220;28;20493;-55
2023/10/06 07:22:45;;;;;;;33.58;8.60;;;;;;;;;;4967463;28;20042;-55
2023/10/06 07:25:15;;;;;;;39.25;8.60;;;;;;;;;;4965435;28;20043;-54
2023/10/06 07:27:45;;;;;;;45.00;8.80;;;;;;;;;;4965075;28;20122;-54
2023/10/06 07:30:14;;;;;;;29.10;7.00;;;;;;;;;;4964373;28;20046;-60
2023/10/06 07:32:42;;;;;;;28.00;7.20;;;;;;;;;;4964008;28;20132;-52
2023/10/06 07:35:09;;;;;;;35.53;7.90;;;;;;;;;;4965622;28;20122;-53
2023/10/06 07:37:39;;;;;;;48.80;7.85;;;;;;;;;;4963420;28;20043;-54
2023/10/06 07:40:12;;;;;;;47.90;7.68;;;;;;;;;;4964881;28;20488;-54
2023/10/06 07:42:40;;;;;;;62.67;10.00;;;;;;;;;;4964173;28;20050;-55
2023/10/06 07:45:07;;;;;;;49.78;8.13;;;;;;;;;;4964812;28;20046;-55
2023/10/06 07:47:36;;;;;;;33.28;7.57;;;;;;;;;;4966012;28;20050;-57
2023/10/06 07:50:06;;;;;;;36.50;8.48;;;;;;;;;;4963271;28;20123;-54
2023/10/06 07:52:33;;;;;;;52.40;8.70;;;;;;;;;;4963983;28;20046;-53
2023/10/06 07:55:00;;;;;;;45.60;8.25;;;;;;;;;;4967841;28;20058;-54
2023/10/06 07:57:32;;;;;;;96.93;10.98;;;;;;;;;;4964233;28;20054;-55
2023/10/06 07:59:59;;;;;;;40.17;9.52;;;;;;;;;;4964320;28;20075;-56
2023/10/06 08:02:29;;;;;;;42.78;9.90;;;;;;;;;;4968409;28;20079;-54
2023/10/06 08:04:56;;;;;;;35.67;11.40;;;;;;;;;;4960904;28;20129;-59
2023/10/06 08:07:30;;;;;;;39.85;10.50;;;;;;;;;;4966041;28;20050;-54
2023/10/06 08:09:58;;;;;;;50.83;11.00;;;;;;;;;;4963930;28;20051;-56
2023/10/06 08:12:27;;;;;;;86.63;13.00;;;;;;;;;;4962853;28;20043;-57
2023/10/06 08:14:54;;;;;;;36.92;11.00;;;;;;;;;;4961459;28;20074;-55
2023/10/06 08:17:21;;;;;;;35.80;12.02;;;;;;;;;;4966251;28;20065;-55
2023/10/06 08:19:47;;;;;;;47.58;12.27;;;;;;;;;;4961658;28;20114;-53
2023/10/06 08:22:15;;;;;;;34.20;10.75;;;;;;;;;;4967397;28;20047;-53
2023/10/06 08:24:43;;;;;;;36.35;11.38;;;;;;;;;;4963252;28;20137;-55
2023/10/06 08:27:11;;;;;;;60.97;14.13;;;;;;;;;;4965733;28;20390;-57
2023/10/06 08:29:38;;;;;;;40.85;12.55;;;;;;;;;;4964752;28;20117;-57
2023/10/06 08:32:06;;;;;;;49.28;11.43;;;;;;;;;;4961928;28;20043;-53
2023/10/06 08:34:39;;;;;;;53.28;11.73;;;;;;;;;;4961808;28;20043;-53
2023/10/06 08:37:11;;;;;;;29.38;11.18;;;;;;;;;;4966560;28;20055;-58
2023/10/06 08:39:40;;;;;;;45.92;11.18;;;;;;;;;;4964319;28;20416;-55
2023/10/06 08:42:10;;;;;;;36.55;11.35;;;;;;;;;;4963055;28;20568;-54
2023/10/06 08:44:38;;;;;;;41.63;10.93;;;;;;;;;;4966190;28;20038;-52
2023/10/06 08:47:12;;;;;;;34.65;10.38;;;;;;;;;;4963713;28;20062;-55
2023/10/06 08:49:56;;;;;;;33.80;10.90;;;;;;;;;;4967286;28;20047;-55
2023/10/06 08:52:23;;;;;;;44.58;11.00;;;;;;;;;;4963786;28;20098;-56
2023/10/06 08:54:50;;;;;;;52.20;11.50;;;;;;;;;;4963946;28;20133;-55
2023/10/06 08:57:17;;;;;;;67.60;12.70;;;;;;;;;;4961717;28;20101;-52
2023/10/06 08:59:44;;;;;;;32.47;11.63;;;;;;;;;;4964650;28;20133;-56
2023/10/06 09:02:12;;;;;;;39.17;11.70;;;;;;;;;;4963607;28;20069;-55
2023/10/06 09:04:38;;;;;;;50.90;12.75;;;;;;;;;;4965696;28;20409;-55
2023/10/06 09:07:12;;;;;;;33.72;11.43;;;;;;;;;;4964317;28;20070;-49
2023/10/06 09:09:43;;;;;;;63.95;13.88;;;;;;;;;;4964325;28;20055;-56
2023/10/06 09:12:23;;;;;;;42.42;12.95;;;;;;;;;;4962586;28;20050;-55
2023/10/06 09:14:56;;;;;;;43.05;12.57;;;;;;;;;;4960855;28;20054;-57
2023/10/06 09:17:30;;;;;;;41.45;14.80;;;;;;;;;;4968885;28;20511;-54
2023/10/06 09:19:58;;;;;;;29.77;11.05;;;;;;;;;;4964214;28;20480;-54
2023/10/06 09:22:29;;;;;;;42.63;11.85;;;;;;;;;;4962535;28;20461;-48
2023/10/06 09:24:59;;;;;;;43.55;12.25;;;;;;;;;;4964968;28;20050;-55
2023/10/06 09:27:26;;;;;;;89.65;15.23;;;;;;;;;;4966643;28;20553;-51
2023/10/06 09:29:57;;;;;;;48.63;12.32;;;;;;;;;;4962814;28;20054;-55
2023/10/06 09:32:24;;;;;;;39.35;10.45;;;;;;;;;;4966460;28;20556;-52
2023/10/06 09:34:53;;;;;;;28.35;9.38;;;;;;;;;;4960006;28;20473;-56
2023/10/06 09:37:20;;;;;;;38.08;10.50;;;;;;;;;;4960872;28;20066;-58
2023/10/06 09:42:46;;;;;;;48.80;9.52;;;;;;;;;;4963557;28;20082;-53
2023/10/06 09:45:17;;;;;;;33.55;8.68;;;;;;;;;;4961821;28;20051;-56
2023/10/06 09:47:48;;;;;;;25.83;7.70;;;;;;;;;;4963207;28;20039;-54
2023/10/06 09:50:17;;;;;;;28.20;8.40;;;;;;;;;;4962797;28;20481;-54
2023/10/06 09:52:46;;;;;;;55.92;9.52;;;;;;;;;;4977730;28;20042;-55
2023/10/06 09:55:22;;;;;;;40.70;8.18;;;;;;;;;;4963299;28;20047;-54
2023/10/06 09:57:50;;;;;;;44.65;8.95;;;;;;;;;;4963854;28;20058;-55
2023/10/06 10:00:18;;;;;;;53.03;10.10;;;;;;;;;;4964231;28;20497;-53
2023/10/06 10:02:46;;;;;;;32.08;7.38;;;;;;;;;;4961784;28;20478;-55
2023/10/06 10:05:19;;;;;;;34.78;7.20;;;;;;;;;;4961831;28;20553;-55
2023/10/06 10:07:48;;;;;;;;;;;;;;;;;;4961931;28;20043;-55
2023/10/06 10:10:16;;;;;;;34.65;7.63;;;;;;;;;;4962732;28;19923;-55
2023/10/06 10:12:47;;;;;;;32.13;7.47;;;;;;;;;;4955223;28;20050;-57
2023/10/06 10:15:28;;;;;;;28.27;6.38;;;;;;;;;;4963270;28;20405;-54
2023/10/06 10:18:05;;;;;;;27.08;7.47;;;;;;;;;;4961375;28;20122;-53
2023/10/06 10:20:33;;;;;;;33.05;7.47;;;;;;;;;;4966665;28;20046;-54
2023/10/06 10:23:03;;;;;;;39.55;8.40;;;;;;;;;;4960234;28;20500;-53
2023/10/06 10:25:30;;;;;;;41.58;8.75;;;;;;;;;;4963276;28;20047;-53
2023/10/06 10:28:13;;;;;;;37.00;8.30;;;;;;;;;;4963408;28;20042;-54
2023/10/06 10:30:50;;;;;;;63.55;9.20;;;;;;;;;;4966283;28;20496;-55
2023/10/06 10:33:24;;;;;;;32.50;8.35;;;;;;;;;;4963869;28;20125;-51
2023/10/06 10:35:51;;;;;;;;;;;;;;;;;;4966732;28;20047;-57
2023/10/06 10:38:17;;;;;;;27.92;6.65;;;;;;;;;;4966671;28;20391;-51
2023/10/06 10:40:46;;;;;;;44.05;7.95;;;;;;;;;;4964765;28;20049;-53
2023/10/06 10:43:14;;;;;;;31.58;6.85;;;;;;;;;;4966765;28;20038;-53
2023/10/06 10:45:44;;;;;;;31.15;6.28;;;;;;;;;;4966954;28;20050;-52
2023/10/06 10:48:15;;;;;;;25.25;6.25;;;;;;;;;;4964855;28;20571;-53
2023/10/06 10:50:57;;;;;;;37.72;5.93;;;;;;;;;;4965237;28;20485;-54
2023/10/06 10:53:29;;;;;;;38.13;5.93;;;;;;;;;;4964697;28;20049;-55
2023/10/06 10:55:56;;;;;;;41.28;6.25;;;;;;;;;;4964883;28;20047;-51
2023/10/06 10:58:42;;;;;;;36.33;6.05;;;;;;;;;;4966339;28;20071;-55
2023/10/06 11:01:22;;;;;;;31.92;5.72;;;;;;;;;;4969087;28;20045;-55
2023/10/06 11:04:08;;;;;;;34.42;6.13;;;;;;;;;;4967015;28;20061;-52
2023/10/06 11:06:38;;;;;;;39.15;5.75;;;;;;;;;;4962114;28;20051;-53
2023/10/06 11:09:12;;;;;;;20.50;4.85;;;;;;;;;;4966102;28;20051;-55
2023/10/06 11:11:39;;;;;;;32.28;5.78;;;;;;;;;;4962917;28;20055;-53
2023/10/06 11:14:05;;;;;;;31.88;5.38;;;;;;;;;;4965624;28;20047;-54
2023/10/06 11:16:32;;;;;;;21.65;5.05;;;;;;;;;;4968635;28;20455;-56
2023/10/06 11:18:59;;;;;;;32.80;5.20;;;;;;;;;;4964675;28;20050;-57
2023/10/06 11:21:26;;;;;;;80.88;8.60;;;;;;;;;;4966013;28;20047;-54
2023/10/06 11:23:53;;;;;;;40.63;5.70;;;;;;;;;;4969099;28;20046;-55
2023/10/06 11:26:26;;;;;;;26.35;5.07;;;;;;;;;;4964336;28;20046;-55
2023/10/06 11:28:53;;;;;;;24.63;4.82;;;;;;;;;;4967825;28;20183;-55
2023/10/06 11:31:20;;;;;;;42.13;5.18;;;;;;;;;;4964609;28;20047;-52
2023/10/06 11:33:49;;;;;;;72.00;7.15;;;;;;;;;;4964656;28;20046;-57
2023/10/06 11:36:16;;;;;;;21.00;3.95;;;;;;;;;;4964614;28;20047;-54
2023/10/06 11:38:43;;;;;;;35.45;5.05;;;;;;;;;;4963945;28;20082;-53
2023/10/06 11:41:11;;;;;;;37.53;4.78;;;;;;;;;;4965162;28;20126;-55
2023/10/06 11:43:37;;;;;;;43.13;5.75;;;;;;;;;;4964858;28;20051;-56
2023/10/06 11:46:05;;;;;;;39.33;6.22;;;;;;;;;;4965096;28;20058;-57
2023/10/06 11:48:35;;;;;;;88.00;7.97;;;;;;;;;;4963852;28;20408;-58
2023/10/06 11:51:08;;;;;;;29.25;4.35;;;;;;;;;;4963679;28;20062;-54
2023/10/06 11:53:36;;;;;;;70.43;6.25;;;;;;;;;;4965146;28;20401;-54
2023/10/06 11:56:06;;;;;;;39.55;5.25;;;;;;;;;;4968302;28;20044;-51
2023/10/06 11:58:35;;;;;;;51.63;5.53;;;;;;;;;;4964669;28;20067;-54
2023/10/06 12:01:03;;;;;;;33.30;4.45;;;;;;;;;;4964575;28;20113;-54
2023/10/06 12:03:42;;;;;;;71.53;7.35;;;;;;;;;;4966985;28;20071;-53
2023/10/06 12:06:14;;;;;;;40.53;5.55;;;;;;;;;;4964925;28;20389;-56
2023/10/06 12:08:43;;;;;;;37.70;4.85;;;;;;;;;;4962088;28;20055;-55
2023/10/06 12:11:12;;;;;;;30.42;4.93;;;;;;;;;;4966158;28;20424;-54
2023/10/06 12:13:41;;;;;;;32.65;4.90;;;;;;;;;;4963853;28;20121;-56
2023/10/06 12:16:14;;;;;;;28.85;4.32;;;;;;;;;;4964298;28;20054;-55
2023/10/06 12:18:44;;;;;;;42.83;5.53;;;;;;;;;;4963721;28;20043;-55
2023/10/06 12:21:14;;;;;;;28.85;4.30;;;;;;;;;;4964208;28;20043;-55
2023/10/06 12:23:41;;;;;;;37.90;5.65;;;;;;;;;;4963799;28;20401;-52
2023/10/06 12:26:08;;;;;;;26.38;4.50;;;;;;;;;;4964184;28;20062;-53
2023/10/06 12:28:35;;;;;;;38.65;5.20;;;;;;;;;;4965648;28;20039;-54
2023/10/06 12:31:05;;;;;;;25.65;4.50;;;;;;;;;;4962834;28;20040;-54
2023/10/06 12:33:35;;;;;;;66.32;6.45;;;;;;;;;;4962053;28;20389;-58
2023/10/06 12:36:08;;;;;;;31.45;5.00;;;;;;;;;;4961938;28;20047;-55
2023/10/06 12:38:35;;;;;;;20.67;5.22;;;;;;;;;;4966622;28;20077;-54
2023/10/06 12:41:06;;;;;;;27.13;4.28;;;;;;;;;;4960178;28;20054;-54
2023/10/06 12:43:36;;;;;;;48.95;5.75;;;;;;;;;;4967601;28;20051;-56
2023/10/06 12:46:04;;;;;;;40.95;5.32;;;;;;;;;;4963273;28;20039;-55
2023/10/06 12:48:31;;;;;;;73.32;7.65;;;;;;;;;;4962840;28;20528;-55
2023/10/06 12:50:57;;;;;;;21.60;4.32;;;;;;;;;;4963795;28;20101;-56
2023/10/06 12:53:28;;;;;;;36.53;4.82;;;;;;;;;;4964201;28;20046;-55
2023/10/06 12:55:56;;;;;;;36.00;5.97;;;;;;;;;;4960843;28;20126;-52
2023/10/06 12:58:23;;;;;;;35.35;4.97;;;;;;;;;;4965874;28;20042;-53
2023/10/06 13:00:50;;;;;;;42.05;5.82;;;;;;;;;;4964553;28;20117;-57
2023/10/06 13:03:17;;;;;;;32.28;4.60;;;;;;;;;;4965539;28;20058;-55
2023/10/06 13:05:48;;;;;;;41.28;5.95;;;;;;;;;;4964699;28;20051;-53
2023/10/06 13:08:17;;;;;;;36.38;4.60;;;;;;;;;;4962134;28;20051;-58
2023/10/06 13:10:44;;;;;;;37.22;5.57;;;;;;;;;;4963971;28;20507;-57
2023/10/06 13:13:12;;;;;;;23.45;4.53;;;;;;;;;;4962476;28;20485;-55
2023/10/06 13:15:42;;;;;;;79.65;7.40;;;;;;;;;;4962039;28;21172;-58
2023/10/06 13:18:08;;;;;;;37.67;5.13;;;;;;;;;;4960954;28;20644;-56
2023/10/06 13:20:35;;;;;;;34.28;5.50;;;;;;;;;;4965958;28;20053;-55
2023/10/06 13:23:04;;;;;;;31.70;4.80;;;;;;;;;;4962542;28;20046;-49
2023/10/06 13:25:31;;;;;;;23.42;4.30;;;;;;;;;;4961090;28;20066;-62
2023/10/06 13:27:58;;;;;;;32.58;4.65;;;;;;;;;;4962590;28;20440;-53
2023/10/06 13:30:25;;;;;;;49.17;5.53;;;;;;;;;;4964768;28;20547;-61
2023/10/06 13:32:53;;;;;;;21.10;3.40;;;;;;;;;;4967000;28;20642;-52
2023/10/06 13:35:20;;;;;;;30.58;4.60;;;;;;;;;;4962862;28;20043;-55
2023/10/06 13:37:47;;;;;;;24.38;3.92;;;;;;;;;;4965206;28;20067;-56
2023/10/06 13:40:15;;;;;;;22.80;3.35;;;;;;;;;;4963090;28;20073;-57
2023/10/06 13:42:50;;;;;;;48.97;5.47;;;;;;;;;;4963743;28;20054;-58
2023/10/06 13:45:23;;;;;;;28.85;4.05;;;;;;;;;;4966293;28;20047;-53
2023/10/06 13:47:53;;;;;;;30.13;3.75;;;;;;;;;;4978750;28;20054;-56
2023/10/06 13:50:21;;;;;;;38.17;4.00;;;;;;;;;;4963601;28;20070;-56
2023/10/06 13:52:51;;;;;;;29.98;3.95;;;;;;;;;;4966683;28;20042;-56
2023/10/06 13:55:18;;;;;;;54.22;8.80;;;;;;;;;;4962157;28;20050;-53
2023/10/06 13:57:46;;;;;;;65.93;6.03;;;;;;;;;;4963863;28;20043;-55
2023/10/06 14:00:38;;;;;;;42.22;4.03;;;;;;;;;;4965459;28;20097;-56
2023/10/06 14:03:07;;;;;;;28.13;3.22;;;;;;;;;;4966331;28;20059;-55
2023/10/06 14:05:34;;;;;;;18.45;2.50;;;;;;;;;;4965886;28;20043;-55
2023/10/06 14:08:04;;;;;;;33.10;3.13;;;;;;;;;;4968594;28;20055;-57
2023/10/06 14:10:31;;;;;;;63.08;4.80;;;;;;;;;;4967715;28;20469;-58
2023/10/06 14:13:17;;;;;;;24.13;3.05;;;;;;;;;;4969947;28;20039;-54
2023/10/06 14:15:44;;;;;;;28.00;3.58;;;;;;;;;;4966642;28;20042;-55
2023/10/06 14:18:12;;;;;;;35.05;3.65;;;;;;;;;;4966603;28;20114;-54
2023/10/06 14:20:43;;;;;;;85.70;6.93;;;;;;;;;;4970566;28;20047;-55
2023/10/06 14:23:11;;;;;;;26.85;3.72;;;;;;;;;;4964659;28;20137;-55
2023/10/06 14:25:39;;;;;;;24.75;2.85;;;;;;;;;;4968561;28;20078;-55
2023/10/06 14:28:09;;;;;;;13.55;2.70;;;;;;;;;;4966165;28;20043;-61
2023/10/06 14:30:41;;;;;;;74.10;5.93;;;;;;;;;;4965278;28;20492;-59
2023/10/06 14:46:39;;;;;;;44.08;4.10;;;;;;;;;;4965089;28;20046;-55
2023/10/06 14:49:06;;;;;;;43.25;4.45;;;;;;;;;;4966466;28;20063;-53
2023/10/06 14:51:33;;;;;;;68.00;5.80;;;;;;;;;;4965509;28;20077;-48
2023/10/06 14:54:03;;;;;;;28.45;3.30;;;;;;;;;;4964744;28;20055;-55
2023/10/06 14:56:31;;;;;;;34.42;3.75;;;;;;;;;;4968396;28;20129;-55
2023/10/06 14:58:58;;;;;;;26.52;4.00;;;;;;;;;;4963726;28;20047;-55
2023/10/06 15:01:25;;;;;;;109.90;8.40;;;;;;;;;;4968230;28;20035;-57
2023/10/06 15:03:52;;;;;;;37.03;4.90;;;;;;;;;;4964952;28;20051;-54